KRKD/RKD METAR and TAF weather

Enter ICAO airport designator
Station Type Date Time Source
KRKD METAR 2019/06/17 13:56 UTC NOAA

KRKD 171356Z AUTO 36007G18KT 10SM CLR 21/09 A2992 RMK AO2 SLP132 T02060089


Station Type Date Time Source
KRKD Decoded METAR 2019/06/17 13:56 UTC NOAA

Rockland, Knox County Regional Airport, ME, United States (KRKD) 44-04N 069-06W
Jun 17, 2019 - 09:56 AM EDT / 2019.06.17 1356 UTC
Wind: from the N (360 degrees) at 8 MPH (7 KT) gusting to 21 MPH (18 KT):0
Visibility: 10 mile(s):0
Sky conditions: clear
Temperature: 69.1 F (20.6 C)
Dew Point: 48.0 F (8.9 C)
Relative Humidity: 46%
Pressure (altimeter): 29.92 in. Hg (1013 hPa)
ob: KRKD 171356Z AUTO 36007G18KT 10SM CLR 21/09 A2992 RMK AO2 SLP132 T02060089
cycle: 14

Station Type Date Time Source
KRKD TAF 2019/06/17 12:24 UTC NOAA

TAF KRKD 171120Z 1712/1812 35006KT P6SM FEW250
FM171800 22006KT P6SM FEW250

Example: see airport list